createdAt,value
2022-08-22T00:01:54.340Z,74.77
2022-08-22T00:02:57.967Z,74.84
2022-08-22T00:04:47.436Z,74.96
2022-08-22T00:07:32.498Z,74.86
2022-08-22T00:10:23.566Z,75.00
2022-08-22T00:13:10.556Z,75.32
2022-08-22T00:15:44.277Z,75.23
2022-08-22T00:18:13.684Z,75.07
2022-08-22T00:20:55.268Z,75.25
2022-08-22T00:23:30.303Z,75.41
2022-08-22T00:26:24.144Z,75.25
2022-08-22T00:29:00.686Z,74.85
2022-08-22T00:31:33.004Z,74.98
2022-08-22T00:34:29.400Z,74.85
2022-08-22T00:37:08.113Z,74.94
2022-08-22T00:39:55.429Z,75.08
2022-08-22T00:42:29.491Z,75.16
2022-08-22T00:45:32.481Z,75.44
2022-08-22T00:48:27.081Z,75.48
2022-08-22T00:51:14.247Z,75.38
2022-08-22T00:54:00.197Z,75.47
2022-08-22T00:56:37.429Z,76.05
2022-08-22T00:59:31.514Z,75.98
2022-08-22T01:02:13.043Z,75.96
2022-08-22T01:05:01.247Z,76.25
2022-08-22T01:07:38.275Z,76.23
2022-08-22T01:10:32.766Z,76.24
2022-08-22T01:13:14.523Z,76.55
2022-08-22T01:15:42.762Z,76.64
2022-08-22T01:18:38.129Z,76.64
2022-08-22T01:21:20.754Z,76.85
2022-08-22T01:25:03.298Z,77.08
2022-08-22T01:28:05.224Z,76.94
2022-08-22T01:30:57.343Z,77.04
2022-08-22T01:33:55.990Z,77.03
2022-08-22T01:36:40.358Z,77.08
2022-08-22T01:39:30.205Z,77.20
2022-08-22T01:42:03.011Z,77.14
2022-08-22T01:44:46.880Z,77.26
2022-08-22T01:47:23.540Z,76.97
2022-08-22T01:49:59.381Z,77.05
2022-08-22T01:52:37.334Z,77.07
2022-08-22T01:55:31.962Z,76.83
2022-08-22T01:58:03.502Z,76.81
2022-08-22T02:00:51.241Z,76.91
2022-08-22T02:03:27.580Z,77.19
2022-08-22T02:06:14.482Z,77.08
2022-08-22T02:08:53.876Z,77.16
2022-08-22T02:11:40.181Z,77.28
2022-08-22T02:14:18.916Z,77.30
2022-08-22T02:16:50.340Z,76.88
2022-08-22T02:19:16.762Z,76.98
2022-08-22T02:22:20.265Z,77.10
2022-08-22T02:25:09.284Z,76.94
2022-08-22T02:27:54.223Z,76.69
2022-08-22T02:30:26.612Z,77.16
2022-08-22T02:33:15.488Z,77.08
2022-08-22T02:36:00.254Z,76.58
2022-08-22T02:38:40.922Z,76.54
2022-08-22T02:41:18.084Z,76.40
2022-08-22T02:43:56.701Z,76.95
2022-08-22T02:46:23.346Z,77.09
2022-08-22T02:49:06.706Z,76.90
2022-08-22T02:52:07.155Z,77.05
2022-08-22T02:54:45.395Z,77.05
2022-08-22T02:57:39.667Z,77.11
2022-08-22T03:00:31.353Z,77.45
2022-08-22T03:03:04.886Z,77.39
2022-08-22T03:05:37.196Z,77.31
2022-08-22T03:08:22.542Z,77.61
2022-08-22T03:11:02.189Z,77.55
2022-08-22T03:13:48.026Z,77.43
2022-08-22T03:16:45.508Z,77.63
2022-08-22T03:19:27.653Z,77.36
2022-08-22T03:22:03.046Z,77.74
2022-08-22T03:25:04.813Z,77.67
2022-08-22T03:27:50.082Z,77.73
2022-08-22T03:30:27.579Z,77.95
2022-08-22T03:33:13.963Z,77.96
2022-08-22T03:35:46.485Z,77.74
2022-08-22T03:38:34.384Z,77.75
2022-08-22T03:41:00.745Z,77.40
2022-08-22T03:43:51.685Z,77.33
2022-08-22T03:46:51.340Z,77.43
2022-08-22T03:49:45.721Z,77.46
2022-08-22T03:52:33.297Z,77.76
2022-08-22T03:55:14.792Z,77.75
2022-08-22T03:58:27.828Z,77.71
2022-08-22T04:01:25.109Z,77.53
2022-08-22T04:04:36.433Z,77.55
2022-08-22T04:07:32.309Z,77.61
2022-08-22T04:10:19.776Z,77.48
2022-08-22T04:13:13.059Z,77.40
2022-08-22T04:15:46.427Z,77.54
2022-08-22T04:18:34.454Z,77.89
2022-08-22T04:21:16.243Z,77.91
2022-08-22T04:23:48.608Z,77.89
2022-08-22T04:27:10.393Z,77.70
2022-08-22T04:29:45.220Z,77.39
2022-08-22T04:32:34.209Z,77.75
2022-08-22T04:35:10.863Z,77.61
2022-08-22T04:37:44.780Z,77.77
2022-08-22T04:40:25.416Z,78.00
2022-08-22T04:43:01.136Z,77.68
2022-08-22T04:45:37.551Z,77.93
2022-08-22T04:48:16.695Z,77.86
2022-08-22T04:50:54.937Z,78.05
2022-08-22T04:53:49.837Z,78.28
2022-08-22T04:56:36.015Z,78.05
2022-08-22T04:59:12.696Z,78.31
2022-08-22T05:01:53.677Z,78.20
2022-08-22T05:04:45.879Z,78.49
2022-08-22T05:07:22.151Z,78.25
2022-08-22T05:09:58.929Z,78.52
2022-08-22T05:12:50.762Z,78.56
2022-08-22T05:15:23.179Z,78.33
2022-08-22T05:17:52.955Z,78.17
2022-08-22T05:20:23.519Z,78.37
2022-08-22T05:22:59.319Z,78.42
2022-08-22T05:25:32.317Z,78.38
2022-08-22T05:28:31.213Z,78.76
2022-08-22T05:30:57.896Z,78.64
2022-08-22T05:33:29.960Z,78.83
2022-08-22T05:36:06.633Z,78.88
2022-08-22T05:38:37.983Z,78.69
2022-08-22T05:41:09.319Z,78.84
2022-08-22T05:43:42.544Z,78.52
2022-08-22T05:46:19.412Z,78.72
2022-08-22T05:49:03.656Z,79.06
2022-08-22T05:51:39.424Z,79.00
2022-08-22T05:54:15.060Z,78.96
2022-08-22T05:56:46.049Z,78.92
2022-08-22T05:59:24.561Z,79.04
2022-08-22T06:02:09.827Z,78.65
2022-08-22T06:04:45.513Z,78.79
2022-08-22T06:07:28.187Z,78.98
2022-08-22T06:10:25.761Z,78.87
2022-08-22T06:13:03.666Z,78.76
2022-08-22T06:15:39.966Z,79.04
2022-08-22T06:18:12.656Z,79.29
2022-08-22T06:20:52.374Z,78.98
2022-08-22T06:23:26.580Z,78.74
2022-08-22T06:25:57.164Z,78.82
2022-08-22T06:28:26.770Z,78.72
2022-08-22T06:30:56.022Z,78.63
2022-08-22T06:33:26.571Z,78.83
2022-08-22T06:36:20.535Z,78.82
2022-08-22T06:39:05.526Z,78.54
2022-08-22T06:41:37.546Z,78.19
2022-08-22T06:44:05.785Z,78.08
2022-08-22T06:46:36.237Z,78.12
2022-08-22T06:49:06.424Z,78.15
2022-08-22T06:51:36.177Z,78.00
2022-08-22T06:54:05.198Z,78.09
2022-08-22T06:56:41.520Z,77.66
2022-08-22T06:59:14.603Z,77.85
2022-08-22T07:01:51.055Z,77.25
2022-08-22T07:04:21.208Z,77.00
2022-08-22T07:06:50.375Z,77.06
2022-08-22T07:09:23.472Z,76.80
2022-08-22T07:11:52.130Z,76.74
2022-08-22T07:14:29.731Z,76.79
2022-08-22T07:16:59.256Z,76.69
2022-08-22T07:19:32.908Z,76.60
2022-08-22T07:22:09.776Z,76.73
2022-08-22T07:24:36.496Z,76.49
2022-08-22T07:27:08.413Z,76.57
2022-08-22T07:29:56.563Z,75.95
2022-08-22T07:32:30.277Z,75.65
2022-08-22T07:35:15.786Z,75.33
2022-08-22T07:37:54.328Z,75.65
2022-08-22T07:40:27.292Z,74.82
2022-08-22T07:43:23.073Z,74.16
2022-08-22T07:45:54.364Z,73.77
2022-08-22T07:48:26.972Z,73.63
2022-08-22T07:51:08.726Z,73.48
2022-08-22T07:53:41.544Z,72.45
2022-08-22T07:56:16.636Z,72.15
2022-08-22T07:58:47.072Z,72.76
2022-08-22T08:01:19.269Z,71.31
2022-08-22T08:04:01.482Z,71.37
2022-08-22T08:06:29.241Z,70.86
2022-08-22T08:08:57.259Z,69.78
2022-08-22T08:11:27.899Z,68.95
2022-08-22T08:14:05.135Z,68.75
2022-08-22T08:16:40.821Z,69.01
2022-08-22T08:19:08.856Z,68.10
2022-08-22T08:21:47.356Z,67.13
2022-08-22T08:24:19.278Z,66.76
2022-08-22T08:27:19.529Z,67.12
2022-08-22T08:29:54.436Z,65.37
2022-08-22T08:32:24.308Z,62.99
2022-08-22T08:34:52.125Z,62.99
2022-08-22T08:37:23.690Z,64.15
2022-08-22T08:39:53.414Z,64.79
2022-08-22T08:42:54.817Z,62.85
2022-08-22T08:45:32.505Z,62.24
2022-08-22T08:48:07.920Z,63.61
2022-08-22T08:50:59.300Z,62.78
2022-08-22T08:53:58.494Z,61.27
2022-08-22T08:56:34.162Z,60.42
2022-08-22T08:59:14.515Z,59.66
2022-08-22T09:02:13.926Z,59.90
2022-08-22T09:04:58.965Z,59.20
2022-08-22T09:07:28.308Z,59.34
2022-08-22T09:10:32.531Z,59.60
2022-08-22T09:13:40.845Z,57.70
2022-08-22T09:16:27.633Z,57.40
2022-08-22T09:19:28.194Z,57.49
2022-08-22T09:22:14.306Z,57.04
2022-08-22T09:24:47.179Z,56.51
2022-08-22T09:27:32.316Z,55.77
2022-08-22T09:30:15.382Z,55.54
2022-08-22T09:32:54.540Z,55.05
2022-08-22T09:35:28.124Z,54.53
2022-08-22T09:38:28.624Z,54.81
2022-08-22T09:41:23.355Z,54.64
2022-08-22T09:44:29.267Z,53.08
2022-08-22T09:47:24.533Z,50.83
2022-08-22T09:50:03.907Z,50.77
2022-08-22T09:52:51.304Z,50.69
2022-08-22T09:55:42.803Z,49.62
2022-08-22T09:58:30.471Z,49.02
2022-08-22T10:01:02.176Z,49.17
2022-08-22T10:04:23.234Z,49.58
2022-08-22T10:07:14.603Z,48.90
2022-08-22T10:09:44.102Z,48.48
2022-08-22T10:12:20.691Z,47.97
2022-08-22T10:15:16.043Z,47.11
2022-08-22T10:17:55.048Z,48.51
2022-08-22T10:20:30.142Z,49.08
2022-08-22T10:23:00.316Z,46.76
2022-08-22T10:25:49.888Z,46.57
2022-08-22T10:28:34.603Z,47.04
2022-08-22T10:31:25.234Z,45.02
2022-08-22T10:34:12.328Z,44.56
2022-08-22T10:36:53.965Z,43.24
2022-08-22T10:39:26.753Z,43.93
2022-08-22T10:42:28.954Z,43.24
2022-08-22T10:45:23.788Z,44.27
2022-08-22T10:48:04.808Z,41.56
2022-08-22T10:50:45.442Z,43.45
2022-08-22T10:53:37.157Z,44.32
2022-08-22T10:56:13.927Z,42.45
2022-08-22T10:58:44.647Z,41.34
2022-08-22T11:01:41.499Z,40.28
2022-08-22T11:04:16.885Z,40.64
2022-08-22T11:06:54.807Z,39.72
2022-08-22T11:09:36.922Z,42.43
2022-08-22T11:12:34.605Z,41.61
2022-08-22T11:15:34.432Z,41.48
2022-08-22T11:18:17.533Z,39.90
2022-08-22T11:21:00.761Z,41.07
2022-08-22T11:23:53.208Z,41.66
2022-08-22T11:26:47.086Z,39.97
2022-08-22T11:29:43.554Z,39.93
2022-08-22T11:32:57.962Z,39.95
2022-08-22T11:35:36.791Z,40.74
2022-08-22T11:38:32.832Z,41.03
2022-08-22T11:41:12.553Z,38.93
2022-08-22T11:43:49.565Z,39.66
2022-08-22T11:46:43.275Z,40.37
2022-08-22T11:49:32.738Z,40.89
2022-08-22T11:52:33.335Z,41.05
2022-08-22T11:55:16.818Z,40.62
2022-08-22T11:57:54.922Z,39.14
2022-08-22T12:00:25.361Z,37.43
2022-08-22T12:03:31.792Z,38.96
2022-08-22T12:06:05.003Z,38.56
2022-08-22T12:08:34.028Z,40.67
2022-08-22T12:11:25.599Z,37.84
2022-08-22T12:14:02.386Z,37.29
2022-08-22T12:16:45.069Z,37.16
2022-08-22T12:19:42.027Z,39.45
2022-08-22T12:22:34.570Z,38.84
2022-08-22T12:25:38.598Z,40.13
2022-08-22T12:28:41.644Z,38.19
2022-08-22T12:31:30.758Z,38.07
2022-08-22T12:34:14.364Z,40.37
2022-08-22T12:36:58.079Z,37.57
2022-08-22T12:40:18.276Z,38.25
2022-08-22T12:43:19.995Z,36.48
2022-08-22T12:46:16.546Z,33.85
2022-08-22T12:48:59.737Z,33.07
2022-08-22T12:51:41.076Z,33.71
2022-08-22T12:55:01.433Z,34.81
2022-08-22T12:57:58.082Z,33.17
2022-08-22T13:00:40.237Z,35.00
2022-08-22T13:03:12.714Z,35.70
2022-08-22T13:05:56.757Z,36.81
2022-08-22T13:08:35.299Z,35.88
2022-08-22T13:11:23.333Z,36.79
2022-08-22T13:13:56.562Z,38.22
2022-08-22T13:16:26.193Z,34.73
2022-08-22T13:19:08.068Z,34.90
2022-08-22T13:21:46.222Z,33.29
2022-08-22T13:24:39.135Z,34.60
2022-08-22T13:27:21.149Z,33.98
2022-08-22T13:29:57.030Z,33.60
2022-08-22T13:32:32.592Z,32.26
2022-08-22T13:35:01.083Z,33.23
2022-08-22T13:38:00.698Z,33.67
2022-08-22T13:40:30.744Z,35.47
2022-08-22T13:43:11.308Z,33.61
2022-08-22T13:45:42.058Z,31.83
2022-08-22T13:48:12.036Z,33.86
2022-08-22T13:51:04.249Z,31.63
2022-08-22T13:53:44.166Z,30.75
2022-08-22T13:56:31.371Z,31.75
2022-08-22T13:59:03.176Z,31.21
2022-08-22T14:02:18.304Z,32.26
2022-08-22T14:04:47.796Z,31.72
2022-08-22T14:07:24.573Z,32.48
2022-08-22T14:10:02.782Z,32.29
2022-08-22T14:12:50.780Z,32.54
2022-08-22T14:15:32.100Z,32.91
2022-08-22T14:18:18.459Z,31.56
2022-08-22T14:20:47.558Z,31.31
2022-08-22T14:23:23.918Z,32.00
2022-08-22T14:25:54.061Z,31.18
2022-08-22T14:28:32.266Z,32.36
2022-08-22T14:31:07.240Z,33.79
2022-08-22T14:33:39.891Z,30.91
2022-08-22T14:36:19.039Z,32.17
2022-08-22T14:38:57.806Z,32.74
2022-08-22T14:42:04.153Z,31.51
2022-08-22T14:44:44.304Z,30.64
2022-08-22T14:47:32.346Z,30.62
2022-08-22T14:50:38.859Z,30.61
2022-08-22T14:53:12.917Z,30.87
2022-08-22T14:55:42.281Z,32.70
2022-08-22T14:58:18.317Z,30.73
2022-08-22T15:00:55.936Z,30.11
2022-08-22T15:03:28.193Z,31.61
2022-08-22T15:06:00.539Z,31.64
2022-08-22T15:08:32.824Z,29.68
2022-08-22T15:11:21.745Z,29.16
2022-08-22T15:13:59.403Z,28.93
2022-08-22T15:16:34.182Z,29.53
2022-08-22T15:19:02.313Z,29.92
2022-08-22T15:21:31.832Z,29.30
2022-08-22T15:24:09.912Z,30.66
2022-08-22T15:26:50.053Z,29.67
2022-08-22T15:29:27.681Z,29.11
2022-08-22T15:32:00.781Z,29.37
2022-08-22T15:34:38.154Z,29.62
2022-08-22T15:37:09.868Z,30.33
2022-08-22T15:39:59.354Z,30.31
2022-08-22T15:42:30.488Z,30.81
2022-08-22T15:44:58.232Z,29.57
2022-08-22T15:47:36.150Z,29.87
2022-08-22T15:50:08.667Z,29.79
2022-08-22T15:53:14.125Z,30.32
2022-08-22T15:56:12.694Z,30.79
2022-08-22T15:58:48.768Z,29.81
2022-08-22T16:01:20.802Z,30.05
2022-08-22T16:04:00.567Z,30.20
2022-08-22T16:07:01.136Z,30.67
2022-08-22T16:09:44.271Z,30.48
2022-08-22T16:12:26.614Z,30.33
2022-08-22T16:14:53.701Z,30.51
2022-08-22T16:17:25.941Z,30.74
2022-08-22T16:20:07.627Z,30.80
2022-08-22T16:22:57.832Z,31.49
2022-08-22T16:25:46.637Z,31.27
2022-08-22T16:28:57.253Z,31.10
2022-08-22T16:31:36.133Z,31.50
2022-08-22T16:34:17.772Z,31.67
2022-08-22T16:37:02.721Z,30.65
2022-08-22T16:39:37.235Z,31.82
2022-08-22T16:42:12.824Z,31.64
2022-08-22T16:44:45.555Z,30.92
2022-08-22T16:47:16.811Z,31.03
2022-08-22T16:49:48.880Z,30.95
2022-08-22T16:52:24.426Z,32.68
2022-08-22T16:55:01.227Z,32.20
2022-08-22T16:58:05.595Z,32.44
2022-08-22T17:00:44.053Z,32.75
2022-08-22T17:03:20.569Z,34.08
2022-08-22T17:06:18.198Z,34.05
2022-08-22T17:08:56.992Z,34.14
2022-08-22T17:11:51.368Z,33.37
2022-08-22T17:14:54.585Z,34.14
2022-08-22T17:17:36.233Z,32.90
2022-08-22T17:20:22.800Z,34.48
2022-08-22T17:23:00.107Z,34.73
2022-08-22T17:25:36.425Z,35.57
2022-08-22T17:28:39.993Z,35.94
2022-08-22T17:31:15.749Z,36.42
2022-08-22T17:34:02.440Z,37.27
2022-08-22T17:36:42.609Z,37.18
2022-08-22T17:39:39.338Z,37.43
2022-08-22T17:42:23.862Z,37.82
2022-08-22T17:45:03.388Z,38.08
2022-08-22T17:47:47.374Z,38.28
2022-08-22T17:50:25.953Z,39.38
2022-08-22T17:52:59.492Z,39.44
2022-08-22T17:55:32.604Z,39.98
2022-08-22T17:58:36.061Z,40.53
2022-08-22T18:01:20.033Z,40.99
2022-08-22T18:03:57.946Z,41.52
2022-08-22T18:06:30.494Z,41.70
2022-08-22T18:09:18.552Z,42.41
2022-08-22T18:11:52.650Z,43.02
2022-08-22T18:14:40.514Z,43.42
2022-08-22T18:17:18.174Z,43.90
2022-08-22T18:20:04.672Z,44.14
2022-08-22T18:22:41.058Z,44.87
2022-08-22T18:25:31.996Z,44.54
2022-08-22T18:28:10.048Z,45.34
2022-08-22T18:30:54.378Z,45.91
2022-08-22T18:33:41.808Z,45.99
2022-08-22T18:36:21.095Z,46.45
2022-08-22T18:39:04.270Z,47.25
2022-08-22T18:41:50.217Z,47.21
2022-08-22T18:44:23.644Z,47.62
2022-08-22T18:46:52.810Z,48.19
2022-08-22T18:49:22.124Z,47.95
2022-08-22T18:52:14.836Z,48.00
2022-08-22T18:54:55.421Z,48.84
2022-08-22T18:57:45.025Z,49.31
2022-08-22T19:00:16.961Z,49.74
2022-08-22T19:03:12.659Z,49.52
2022-08-22T19:06:12.495Z,49.49
2022-08-22T19:08:55.808Z,50.10
2022-08-22T19:11:40.904Z,50.88
2022-08-22T19:14:21.911Z,51.56
2022-08-22T19:17:17.860Z,51.63
2022-08-22T19:20:15.268Z,52.68
2022-08-22T19:22:42.644Z,53.04
2022-08-22T19:25:15.204Z,53.62
2022-08-22T19:28:02.461Z,54.17
2022-08-22T19:30:50.411Z,54.41
2022-08-22T19:33:16.753Z,55.36
2022-08-22T19:36:05.386Z,55.36
2022-08-22T19:38:59.884Z,55.30
2022-08-22T19:41:39.420Z,55.61
2022-08-22T19:44:34.557Z,55.81
2022-08-22T19:47:29.061Z,56.38
2022-08-22T19:50:17.962Z,56.58
2022-08-22T19:52:47.125Z,56.71
2022-08-22T19:55:22.286Z,57.07
2022-08-22T19:58:05.499Z,57.59
2022-08-22T20:00:57.681Z,57.49
2022-08-22T20:03:43.828Z,58.27
2022-08-22T20:06:43.942Z,58.07
2022-08-22T20:09:32.707Z,58.16
2022-08-22T20:12:15.140Z,58.55
2022-08-22T20:14:44.203Z,58.94
2022-08-22T20:17:25.783Z,58.94
2022-08-22T20:20:17.640Z,59.42
2022-08-22T20:22:49.502Z,59.22
2022-08-22T20:25:43.136Z,59.11
2022-08-22T20:28:33.783Z,59.34
2022-08-22T20:31:04.657Z,59.84
2022-08-22T20:33:35.392Z,60.56
2022-08-22T20:36:06.164Z,61.01
2022-08-22T20:38:55.400Z,60.99
2022-08-22T20:41:36.890Z,61.08
2022-08-22T20:44:23.706Z,60.78
2022-08-22T20:46:57.475Z,60.85
2022-08-22T20:49:31.471Z,60.74
2022-08-22T20:52:00.859Z,60.84
2022-08-22T20:54:33.025Z,60.55
2022-08-22T20:57:09.968Z,60.47
2022-08-22T20:59:41.404Z,61.11
2022-08-22T21:02:25.737Z,61.10
2022-08-22T21:05:00.173Z,61.33
2022-08-22T21:07:32.545Z,61.90
2022-08-22T21:10:40.518Z,62.08
2022-08-22T21:13:19.705Z,62.33
2022-08-22T21:15:50.713Z,62.74
2022-08-22T21:18:34.089Z,62.82
2022-08-22T21:21:20.499Z,62.97
2022-08-22T21:23:52.471Z,62.98
2022-08-22T21:26:21.094Z,63.28
2022-08-22T21:28:58.753Z,63.61
2022-08-22T21:31:30.162Z,63.74
2022-08-22T21:33:57.235Z,63.54
2022-08-22T21:36:27.366Z,63.74
2022-08-22T21:39:06.451Z,63.40
2022-08-22T21:41:47.237Z,63.93
2022-08-22T21:44:32.097Z,63.76
2022-08-22T21:47:30.707Z,64.50
2022-08-22T21:50:13.173Z,64.81
2022-08-22T21:52:59.616Z,65.00
2022-08-22T21:55:38.224Z,65.15
2022-08-22T21:58:32.625Z,65.38
2022-08-22T22:01:27.291Z,65.28
2022-08-22T22:03:54.627Z,65.20
2022-08-22T22:06:21.077Z,65.40
2022-08-22T22:08:47.758Z,65.86
2022-08-22T22:11:15.380Z,66.27
2022-08-22T22:13:42.307Z,66.46
2022-08-22T22:16:12.037Z,66.59
2022-08-22T22:18:39.522Z,66.83
2022-08-22T22:21:06.337Z,66.75
2022-08-22T22:23:32.820Z,67.07
2022-08-22T22:26:02.266Z,67.33
2022-08-22T22:28:31.703Z,67.30
2022-08-22T22:30:58.195Z,67.22
2022-08-22T22:33:28.020Z,67.87
2022-08-22T22:35:57.054Z,68.01
2022-08-22T22:38:24.394Z,67.68
2022-08-22T22:40:52.174Z,67.71
2022-08-22T22:43:18.814Z,67.95
2022-08-22T22:45:45.283Z,68.30
2022-08-22T22:48:11.810Z,68.62
2022-08-22T22:50:50.332Z,68.85
2022-08-22T22:53:19.912Z,68.48
2022-08-22T22:55:59.573Z,68.37
2022-08-22T22:58:26.992Z,69.04
2022-08-22T23:00:53.404Z,69.05
2022-08-22T23:03:20.162Z,69.16
2022-08-22T23:05:46.644Z,69.23
2022-08-22T23:08:13.011Z,69.40
2022-08-22T23:10:39.452Z,69.37
2022-08-22T23:13:06.479Z,69.53
2022-08-22T23:15:32.820Z,69.61
2022-08-22T23:17:59.304Z,69.72
2022-08-22T23:20:25.841Z,69.91
2022-08-22T23:22:52.349Z,70.37
2022-08-22T23:25:18.887Z,70.46
2022-08-22T23:27:45.315Z,70.57
2022-08-22T23:30:18.745Z,70.67
2022-08-22T23:32:45.114Z,71.08
2022-08-22T23:35:11.616Z,70.94
2022-08-22T23:37:38.139Z,70.85
2022-08-22T23:40:07.561Z,70.98
2022-08-22T23:42:34.057Z,70.86
2022-08-22T23:45:00.460Z,70.98
2022-08-22T23:47:26.948Z,71.17
2022-08-22T23:49:53.381Z,71.20
2022-08-22T23:52:20.712Z,71.02
2022-08-22T23:54:47.313Z,71.32
2022-08-22T23:57:20.684Z,71.55
2022-08-22T23:59:57.782Z,71.48
